createdAt,value
2022-08-25T00:00:00.281Z,86
2022-08-25T00:05:00.368Z,87
2022-08-25T00:10:00.243Z,86
2022-08-25T00:15:00.245Z,87
2022-08-25T00:20:00.254Z,87
2022-08-25T00:25:00.235Z,87
2022-08-25T00:30:00.322Z,87
2022-08-25T00:35:00.227Z,86
2022-08-25T00:40:00.400Z,86
2022-08-25T00:45:00.638Z,86
2022-08-25T00:50:00.235Z,86
2022-08-25T00:55:05.777Z,87
2022-08-25T01:00:00.246Z,87
2022-08-25T01:05:00.188Z,87
2022-08-25T01:10:00.246Z,88
2022-08-25T01:15:00.226Z,89
2022-08-25T01:20:00.227Z,88
2022-08-25T01:25:00.227Z,88
2022-08-25T01:30:00.201Z,87
2022-08-25T01:35:00.225Z,88
2022-08-25T01:40:00.439Z,88
2022-08-25T01:45:00.234Z,88
2022-08-25T01:50:00.264Z,89
2022-08-25T01:55:00.199Z,89
2022-08-25T02:00:00.253Z,90
2022-08-25T02:05:00.222Z,90
2022-08-25T02:10:03.137Z,90
2022-08-25T02:15:00.207Z,90
2022-08-25T02:20:00.218Z,91
2022-08-25T02:25:00.213Z,91
2022-08-25T02:30:00.237Z,91
2022-08-25T02:35:00.216Z,91
2022-08-25T02:40:00.363Z,91
2022-08-25T02:45:00.255Z,91
2022-08-25T02:50:00.252Z,91
2022-08-25T02:55:00.223Z,91
2022-08-25T03:00:00.264Z,91
2022-08-25T03:05:00.331Z,91
2022-08-25T03:10:00.226Z,91
2022-08-25T03:15:00.212Z,91
2022-08-25T03:20:00.243Z,91
2022-08-25T03:25:00.229Z,91
2022-08-25T03:30:00.263Z,91
2022-08-25T03:35:00.252Z,92
2022-08-25T03:40:00.330Z,93
2022-08-25T03:45:00.268Z,92
2022-08-25T03:50:00.230Z,91
2022-08-25T03:55:00.223Z,91
2022-08-25T04:00:00.272Z,91
2022-08-25T04:05:00.229Z,90
2022-08-25T04:10:00.233Z,91
2022-08-25T04:15:00.242Z,91
2022-08-25T04:20:00.233Z,91
2022-08-25T04:25:00.188Z,92
2022-08-25T04:30:00.203Z,92
2022-08-25T04:35:00.174Z,92
2022-08-25T04:40:00.297Z,91
2022-08-25T04:45:00.183Z,91
2022-08-25T04:50:00.195Z,91
2022-08-25T04:55:00.194Z,91
2022-08-25T05:00:00.208Z,92
2022-08-25T05:05:00.176Z,91
2022-08-25T05:10:00.201Z,91
2022-08-25T05:15:00.177Z,90
2022-08-25T05:20:00.190Z,89
2022-08-25T05:25:00.185Z,88
2022-08-25T05:30:00.203Z,88
2022-08-25T05:35:00.184Z,88
2022-08-25T05:40:00.300Z,88
2022-08-25T05:45:00.190Z,84
2022-08-25T05:50:00.235Z,83
2022-08-25T05:55:00.171Z,81
2022-08-25T06:00:00.218Z,77
2022-08-25T06:05:00.190Z,74
2022-08-25T06:10:00.187Z,71
2022-08-25T06:15:00.229Z,68
2022-08-25T06:20:00.204Z,65
2022-08-25T06:25:00.176Z,63
2022-08-25T06:30:00.302Z,62
2022-08-25T06:35:00.190Z,62
2022-08-25T06:40:00.373Z,62
2022-08-25T06:45:00.264Z,60
2022-08-25T06:50:00.188Z,59
2022-08-25T06:55:00.186Z,58
2022-08-25T07:00:00.208Z,58
2022-08-25T07:05:00.192Z,57
2022-08-25T07:10:00.192Z,56
2022-08-25T07:15:17.091Z,55
2022-08-25T07:20:00.193Z,56
2022-08-25T07:25:00.213Z,56
2022-08-25T07:30:00.435Z,53
2022-08-25T07:35:00.202Z,54
2022-08-25T07:40:00.285Z,53
2022-08-25T07:45:00.189Z,52
2022-08-25T07:50:00.230Z,50
2022-08-25T07:55:00.205Z,50
2022-08-25T08:00:00.219Z,50
2022-08-25T08:05:00.192Z,50
2022-08-25T08:10:19.200Z,49
2022-08-25T08:15:00.209Z,48
2022-08-25T08:20:00.190Z,46
2022-08-25T08:25:00.220Z,47
2022-08-25T08:30:00.223Z,46
2022-08-25T08:35:00.237Z,45
2022-08-25T08:40:00.310Z,46
2022-08-25T08:45:02.587Z,45
2022-08-25T08:50:00.220Z,44
2022-08-25T17:00:00.234Z,31
2022-08-25T17:05:00.214Z,31
2022-08-25T17:10:00.192Z,32
2022-08-25T17:15:00.203Z,32
2022-08-25T17:20:00.172Z,31
2022-08-25T17:25:01.194Z,33
2022-08-25T17:30:00.187Z,36
2022-08-25T17:35:00.184Z,35
2022-08-25T17:40:02.814Z,36
2022-08-25T17:45:00.227Z,38
2022-08-25T17:50:00.178Z,39
2022-08-25T17:55:00.185Z,38
2022-08-25T18:00:00.206Z,40
2022-08-25T18:05:00.217Z,43
2022-08-25T18:10:00.193Z,41
2022-08-25T18:15:00.185Z,45
2022-08-25T18:20:00.183Z,43
2022-08-25T18:25:00.212Z,44
2022-08-25T18:30:00.207Z,46
2022-08-25T18:35:00.182Z,47
2022-08-25T18:40:00.333Z,48
2022-08-25T18:45:00.194Z,49
2022-08-25T18:50:04.195Z,50
2022-08-25T18:55:00.186Z,48
2022-08-25T19:00:00.199Z,50
2022-08-25T19:05:07.392Z,50
2022-08-25T19:10:00.165Z,52
2022-08-25T19:15:00.184Z,52
2022-08-25T19:20:00.192Z,53
2022-08-25T19:25:00.185Z,53
2022-08-25T19:30:00.170Z,53
2022-08-25T19:35:00.188Z,53
2022-08-25T19:40:00.290Z,55
2022-08-25T19:45:00.189Z,56
2022-08-25T19:50:00.273Z,56
2022-08-25T19:55:00.187Z,59
2022-08-25T20:00:00.236Z,55
2022-08-25T20:05:00.172Z,54
2022-08-25T20:10:00.200Z,55
2022-08-25T20:15:00.168Z,56
2022-08-25T20:20:00.160Z,60
2022-08-25T20:25:00.167Z,64
2022-08-25T20:30:02.573Z,68
2022-08-25T20:35:00.163Z,69
2022-08-25T20:40:00.296Z,70
2022-08-25T20:45:00.168Z,71
2022-08-25T20:50:04.498Z,72
2022-08-25T20:55:00.177Z,72
2022-08-25T21:00:00.203Z,73
2022-08-25T21:05:00.171Z,74
2022-08-25T21:10:00.184Z,75
2022-08-25T21:15:00.166Z,76
2022-08-25T21:20:00.206Z,77
2022-08-25T21:25:00.177Z,77
2022-08-25T21:30:00.197Z,77
2022-08-25T21:35:00.172Z,77
2022-08-25T21:40:00.290Z,77
2022-08-25T21:45:00.158Z,78
2022-08-25T21:50:00.176Z,78
2022-08-25T21:55:00.182Z,79
2022-08-25T22:00:00.251Z,79
2022-08-25T22:05:00.221Z,80
2022-08-25T22:10:00.202Z,80
2022-08-25T22:15:00.160Z,81
2022-08-25T22:20:00.191Z,82
2022-08-25T22:25:00.171Z,82
2022-08-25T22:30:00.203Z,83
2022-08-25T22:35:00.169Z,83
2022-08-25T22:40:00.275Z,83
2022-08-25T22:45:00.213Z,84
2022-08-25T22:50:00.339Z,85
2022-08-25T22:55:00.162Z,85
2022-08-25T23:00:00.187Z,85
2022-08-25T23:05:01.007Z,86
2022-08-25T23:10:00.179Z,86
2022-08-25T23:15:00.166Z,86
2022-08-25T23:20:00.179Z,87
2022-08-25T23:25:00.168Z,87
2022-08-25T23:30:00.204Z,87
2022-08-25T23:35:00.144Z,87
2022-08-25T23:40:00.309Z,87
2022-08-25T23:45:00.168Z,87
2022-08-25T23:50:00.185Z,87
2022-08-25T23:55:00.153Z,86
